sensor_id;sensor_type;location;lat;lon;timestamp;pressure;altitude;pressure_sealevel;temperature;humidity
32875;BME280;40468;42.128;24.750;2022-12-18T00:00:17;100311.16;;;10.37;95.77
32875;BME280;40468;42.128;24.750;2022-12-18T00:01:49;100305.94;;;10.37;95.92
32875;BME280;40468;42.128;24.750;2022-12-18T00:03:20;100299.06;;;10.36;95.89
32875;BME280;40468;42.128;24.750;2022-12-18T00:04:51;100249.19;;;9.98;95.79
32875;BME280;40468;42.128;24.750;2022-12-18T00:06:25;100309.47;;;10.36;95.62
32875;BME280;40468;42.128;24.750;2022-12-18T00:07:57;100312.09;;;10.34;95.67
32875;BME280;40468;42.128;24.750;2022-12-18T00:09:31;100316.47;;;10.34;95.63
32875;BME280;40468;42.128;24.750;2022-12-18T00:11:03;100328.09;;;10.23;95.24
32875;BME280;40468;42.128;24.750;2022-12-18T00:12:35;100336.00;;;10.20;95.76
32875;BME280;40468;42.128;24.750;2022-12-18T00:14:07;100335.91;;;10.23;95.39
32875;BME280;40468;42.128;24.750;2022-12-18T00:15:40;100336.19;;;10.14;95.42
32875;BME280;40468;42.128;24.750;2022-12-18T00:17:12;100334.47;;;10.15;95.71
32875;BME280;40468;42.128;24.750;2022-12-18T00:18:43;100341.28;;;10.17;95.64
32875;BME280;40468;42.128;24.750;2022-12-18T00:20:15;100347.53;;;10.13;95.66
32875;BME280;40468;42.128;24.750;2022-12-18T00:21:52;100268.53;;;9.64;95.50
32875;BME280;40468;42.128;24.750;2022-12-18T00:23:24;100353.44;;;10.18;95.70
32875;BME280;40468;42.128;24.750;2022-12-18T00:24:56;100362.03;;;10.20;95.67
32875;BME280;40468;42.128;24.750;2022-12-18T00:26:28;100357.13;;;10.11;95.35
32875;BME280;40468;42.128;24.750;2022-12-18T00:27:59;100358.03;;;10.10;96.00
32875;BME280;40468;42.128;24.750;2022-12-18T00:29:31;100369.19;;;10.14;95.83
32875;BME280;40468;42.128;24.750;2022-12-18T00:31:05;100310.53;;;9.78;95.59
32875;BME280;40468;42.128;24.750;2022-12-18T00:32:37;100367.38;;;10.16;95.74
32875;BME280;40468;42.128;24.750;2022-12-18T00:34:10;100359.69;;;10.13;95.69
32875;BME280;40468;42.128;24.750;2022-12-18T00:35:43;100356.25;;;10.12;95.61
32875;BME280;40468;42.128;24.750;2022-12-18T00:37:15;100364.78;;;10.16;95.62
32875;BME280;40468;42.128;24.750;2022-12-18T00:38:47;100371.75;;;10.15;95.47
32875;BME280;40468;42.128;24.750;2022-12-18T00:40:19;100379.56;;;10.15;95.28
32875;BME280;40468;42.128;24.750;2022-12-18T00:41:51;100371.13;;;10.09;95.35
32875;BME280;40468;42.128;24.750;2022-12-18T00:43:40;100385.72;;;10.13;95.10
32875;BME280;40468;42.128;24.750;2022-12-18T00:45:11;100396.13;;;10.13;95.12
32875;BME280;40468;42.128;24.750;2022-12-18T00:46:43;100389.22;;;10.12;95.15
32875;BME280;40468;42.128;24.750;2022-12-18T00:48:14;100396.34;;;10.07;94.57
32875;BME280;40468;42.128;24.750;2022-12-18T00:49:46;100407.69;;;10.04;94.27
32875;BME280;40468;42.128;24.750;2022-12-18T00:51:17;100405.22;;;9.99;94.22
32875;BME280;40468;42.128;24.750;2022-12-18T00:52:49;100400.19;;;9.95;94.33
32875;BME280;40468;42.128;24.750;2022-12-18T00:54:21;100402.78;;;9.95;93.94
32875;BME280;40468;42.128;24.750;2022-12-18T00:55:53;100405.44;;;9.93;94.01
32875;BME280;40468;42.128;24.750;2022-12-18T00:57:25;100398.84;;;9.83;94.03
32875;BME280;40468;42.128;24.750;2022-12-18T00:58:56;100409.09;;;9.88;94.36
32875;BME280;40468;42.128;24.750;2022-12-18T01:00:28;100396.97;;;9.87;94.15
32875;BME280;40468;42.128;24.750;2022-12-18T01:02:00;100340.16;;;9.48;94.50
32875;BME280;40468;42.128;24.750;2022-12-18T01:03:31;100391.88;;;9.84;94.25
32875;BME280;40468;42.128;24.750;2022-12-18T01:05:03;100389.28;;;9.84;94.13
32875;BME280;40468;42.128;24.750;2022-12-18T01:06:35;100393.56;;;9.85;94.08
32875;BME280;40468;42.128;24.750;2022-12-18T01:08:08;100398.00;;;9.83;94.38
32875;BME280;40468;42.128;24.750;2022-12-18T01:09:40;100393.63;;;9.83;94.25
32875;BME280;40468;42.128;24.750;2022-12-18T01:11:16;100394.47;;;9.84;94.27
32875;BME280;40468;42.128;24.750;2022-12-18T01:12:47;100386.78;;;9.80;94.66
32875;BME280;40468;42.128;24.750;2022-12-18T01:14:19;100397.16;;;9.82;94.68
32875;BME280;40468;42.128;24.750;2022-12-18T01:15:51;100393.78;;;9.78;94.56
32875;BME280;40468;42.128;24.750;2022-12-18T01:17:24;100396.28;;;9.82;94.75
32875;BME280;40468;42.128;24.750;2022-12-18T01:18:56;100386.78;;;9.80;94.42
32875;BME280;40468;42.128;24.750;2022-12-18T01:20:28;100384.19;;;9.80;94.60
32875;BME280;40468;42.128;24.750;2022-12-18T01:21:59;100384.19;;;9.80;94.60
32875;BME280;40468;42.128;24.750;2022-12-18T01:23:31;100385.88;;;9.82;94.73
32875;BME280;40468;42.128;24.750;2022-12-18T01:25:02;100384.19;;;9.80;94.60
32875;BME280;40468;42.128;24.750;2022-12-18T01:26:36;100390.28;;;9.79;94.93
32875;BME280;40468;42.128;24.750;2022-12-18T01:28:08;100393.78;;;9.78;95.11
32875;BME280;40468;42.128;24.750;2022-12-18T01:29:38;100391.19;;;9.78;95.12
32875;BME280;40468;42.128;24.750;2022-12-18T01:31:16;100385.97;;;9.78;94.78
32875;BME280;40468;42.128;24.750;2022-12-18T01:32:49;100381.72;;;9.76;95.02
32875;BME280;40468;42.128;24.750;2022-12-18T01:34:21;100384.31;;;9.76;95.04
32875;BME280;40468;42.128;24.750;2022-12-18T01:35:52;100385.19;;;9.76;95.28
32875;BME280;40468;42.128;24.750;2022-12-18T01:37:24;100382.63;;;9.75;95.08
32875;BME280;40468;42.128;24.750;2022-12-18T01:38:56;100392.13;;;9.76;94.96
32875;BME280;40468;42.128;24.750;2022-12-18T01:40:27;100391.28;;;9.75;95.14
32875;BME280;40468;42.128;24.750;2022-12-18T01:42:05;100378.22;;;9.77;95.23
32875;BME280;40468;42.128;24.750;2022-12-18T01:43:49;100386.06;;;9.75;95.01
32875;BME280;40468;42.128;24.750;2022-12-18T01:45:27;100391.28;;;9.75;95.06
32875;BME280;40468;42.128;24.750;2022-12-18T01:46:59;100387.91;;;9.73;95.01
32875;BME280;40468;42.128;24.750;2022-12-18T01:48:30;100393.88;;;9.75;94.88
32875;BME280;40468;42.128;24.750;2022-12-18T01:50:05;100388.66;;;9.75;94.88
32875;BME280;40468;42.128;24.750;2022-12-18T01:51:37;100368.16;;;9.66;94.99
32875;BME280;40468;42.128;24.750;2022-12-18T01:53:12;100387.03;;;9.73;95.17
32875;BME280;40468;42.128;24.750;2022-12-18T01:54:45;100390.53;;;9.72;95.26
32875;BME280;40468;42.128;24.750;2022-12-18T01:56:19;100331.03;;;9.34;94.96
32875;BME280;40468;42.128;24.750;2022-12-18T01:57:55;100390.50;;;9.73;95.00
32875;BME280;40468;42.128;24.750;2022-12-18T01:59:28;100385.28;;;9.73;94.97
32875;BME280;40468;42.128;24.750;2022-12-18T02:01:02;100323.44;;;9.28;94.94
32875;BME280;40468;42.128;24.750;2022-12-18T02:02:34;100393.84;;;9.77;95.16
32875;BME280;40468;42.128;24.750;2022-12-18T02:04:20;100396.38;;;9.78;95.18
32875;BME280;40468;42.128;24.750;2022-12-18T02:05:57;100404.19;;;9.78;95.23
32875;BME280;40468;42.128;24.750;2022-12-18T02:07:39;100347.34;;;9.40;94.98
32875;BME280;40468;42.128;24.750;2022-12-18T02:09:16;100406.69;;;9.82;95.40
32875;BME280;40468;42.128;24.750;2022-12-18T02:10:57;100321.66;;;9.30;95.29
32875;BME280;40468;42.128;24.750;2022-12-18T02:12:42;100411.75;;;9.86;95.24
32875;BME280;40468;42.128;24.750;2022-12-18T02:14:26;100406.47;;;9.88;94.89
32875;BME280;40468;42.128;24.750;2022-12-18T02:16:03;100409.03;;;9.89;95.37
32875;BME280;40468;42.128;24.750;2022-12-18T02:17:43;100412.47;;;9.91;94.95
32875;BME280;40468;42.128;24.750;2022-12-18T02:19:42;100418.50;;;9.92;95.12
32875;BME280;40468;42.128;24.750;2022-12-18T02:21:22;100419.31;;;9.94;95.25
32875;BME280;40468;42.128;24.750;2022-12-18T02:23:08;100424.47;;;9.95;95.04
32875;BME280;40468;42.128;24.750;2022-12-18T02:24:47;100407.25;;;9.91;95.00
32875;BME280;40468;42.128;24.750;2022-12-18T02:26:29;100408.00;;;9.95;95.16
32875;BME280;40468;42.128;24.750;2022-12-18T02:28:06;100390.97;;;9.85;95.22
32875;BME280;40468;42.128;24.750;2022-12-18T02:29:43;100412.25;;;9.97;95.46
32875;BME280;40468;42.128;24.750;2022-12-18T02:31:22;100416.50;;;10.00;95.15
32875;BME280;40468;42.128;24.750;2022-12-18T02:32:55;100421.50;;;10.06;95.27
32875;BME280;40468;42.128;24.750;2022-12-18T02:34:30;100356.91;;;9.66;95.02
32875;BME280;40468;42.128;24.750;2022-12-18T02:36:03;100410.09;;;10.10;95.28
32875;BME280;40468;42.128;24.750;2022-12-18T02:37:37;100411.78;;;10.11;95.22
32875;BME280;40468;42.128;24.750;2022-12-18T02:39:12;100410.06;;;10.12;95.18
32875;BME280;40468;42.128;24.750;2022-12-18T02:40:46;100415.19;;;10.13;95.14
32875;BME280;40468;42.128;24.750;2022-12-18T02:42:20;100414.28;;;10.14;95.23
32875;BME280;40468;42.128;24.750;2022-12-18T02:43:53;100412.78;;;10.07;95.07
32875;BME280;40468;42.128;24.750;2022-12-18T02:45:26;100410.41;;;10.01;95.29
32875;BME280;40468;42.128;24.750;2022-12-18T02:46:58;100406.84;;;10.03;95.36
32875;BME280;40468;42.128;24.750;2022-12-18T02:48:34;100406.69;;;10.08;95.23
32875;BME280;40468;42.128;24.750;2022-12-18T02:50:14;100402.38;;;10.07;95.33
32875;BME280;40468;42.128;24.750;2022-12-18T02:51:53;100412.69;;;10.10;95.09
32875;BME280;40468;42.128;24.750;2022-12-18T02:53:30;100410.06;;;10.12;95.29
32875;BME280;40468;42.128;24.750;2022-12-18T02:55:15;100406.63;;;10.10;95.18
32875;BME280;40468;42.128;24.750;2022-12-18T02:56:51;100414.34;;;10.13;95.19
32875;BME280;40468;42.128;24.750;2022-12-18T02:58:31;100269.03;;;9.24;94.98
32875;BME280;40468;42.128;24.750;2022-12-18T03:00:10;100415.16;;;10.15;94.63
32875;BME280;40468;42.128;24.750;2022-12-18T03:01:49;100417.78;;;10.13;94.92
32875;BME280;40468;42.128;24.750;2022-12-18T03:03:25;100423.84;;;10.14;94.63
32875;BME280;40468;42.128;24.750;2022-12-18T03:05:04;100419.56;;;10.13;94.49
32875;BME280;40468;42.128;24.750;2022-12-18T03:06:41;100420.50;;;10.10;94.77
32875;BME280;40468;42.128;24.750;2022-12-18T03:08:18;100423.91;;;10.12;94.62
32875;BME280;40468;42.128;24.750;2022-12-18T03:09:51;100420.47;;;10.12;94.54
32875;BME280;40468;42.128;24.750;2022-12-18T03:11:27;100424.78;;;10.11;94.71
32875;BME280;40468;42.128;24.750;2022-12-18T03:13:16;100332.81;;;9.61;94.60
32875;BME280;40468;42.128;24.750;2022-12-18T03:14:54;100423.09;;;10.10;94.65
32875;BME280;40468;42.128;24.750;2022-12-18T03:16:28;100416.34;;;10.05;94.10
32875;BME280;40468;42.128;24.750;2022-12-18T03:18:04;100424.88;;;10.08;94.20
32875;BME280;40468;42.128;24.750;2022-12-18T03:19:38;100413.03;;;9.99;94.33
32875;BME280;40468;42.128;24.750;2022-12-18T03:21:10;100428.72;;;9.98;94.22
32875;BME280;40468;42.128;24.750;2022-12-18T03:22:44;100427.88;;;9.97;94.55
32875;BME280;40468;42.128;24.750;2022-12-18T03:24:18;100428.72;;;9.98;94.51
32875;BME280;40468;42.128;24.750;2022-12-18T03:25:54;100425.25;;;9.97;94.31
32875;BME280;40468;42.128;24.750;2022-12-18T03:27:29;100432.13;;;10.00;93.92
32875;BME280;40468;42.128;24.750;2022-12-18T03:29:06;100430.47;;;9.97;94.10
32875;BME280;40468;42.128;24.750;2022-12-18T03:30:41;100440.72;;;10.02;93.74
32875;BME280;40468;42.128;24.750;2022-12-18T03:32:18;100433.81;;;10.01;94.07
32875;BME280;40468;42.128;24.750;2022-12-18T03:33:52;100430.50;;;9.96;93.86
32875;BME280;40468;42.128;24.750;2022-12-18T03:35:28;100437.25;;;10.01;93.76
32875;BME280;40468;42.128;24.750;2022-12-18T03:37:01;100439.94;;;10.00;93.61
32875;BME280;40468;42.128;24.750;2022-12-18T03:38:32;100447.75;;;10.00;93.64
32875;BME280;40468;42.128;24.750;2022-12-18T03:40:05;100453.78;;;10.00;93.14
32875;BME280;40468;42.128;24.750;2022-12-18T03:41:42;100452.06;;;9.99;93.18
32875;BME280;40468;42.128;24.750;2022-12-18T03:43:20;100456.50;;;9.97;93.32
32875;BME280;40468;42.128;24.750;2022-12-18T03:45:02;100462.53;;;9.98;93.02
32875;BME280;40468;42.128;24.750;2022-12-18T03:46:44;100465.97;;;9.98;93.04
32875;BME280;40468;42.128;24.750;2022-12-18T03:48:20;100470.34;;;9.98;93.16
32875;BME280;40468;42.128;24.750;2022-12-18T03:49:58;100480.78;;;9.96;93.53
32875;BME280;40468;42.128;24.750;2022-12-18T03:51:38;100476.50;;;9.95;93.36
32875;BME280;40468;42.128;24.750;2022-12-18T03:53:22;100480.78;;;9.96;93.52
32875;BME280;40468;42.128;24.750;2022-12-18T03:54:57;100384.13;;;9.27;93.43
32875;BME280;40468;42.128;24.750;2022-12-18T03:56:30;100486.25;;;9.89;93.24
32875;BME280;40468;42.128;24.750;2022-12-18T03:58:03;100494.84;;;9.91;93.77
32875;BME280;40468;42.128;24.750;2022-12-18T03:59:38;100487.94;;;9.90;93.81
32875;BME280;40468;42.128;24.750;2022-12-18T04:01:13;100494.66;;;9.97;93.62
32875;BME280;40468;42.128;24.750;2022-12-18T04:02:50;100348.22;;;9.12;93.61
32875;BME280;40468;42.128;24.750;2022-12-18T04:04:24;100492.84;;;9.99;93.78
32875;BME280;40468;42.128;24.750;2022-12-18T04:05:58;100488.56;;;9.98;93.90
32875;BME280;40468;42.128;24.750;2022-12-18T04:07:30;100491.34;;;9.92;93.80
32875;BME280;40468;42.128;24.750;2022-12-18T04:09:02;100490.44;;;9.93;93.82
32875;BME280;40468;42.128;24.750;2022-12-18T04:10:35;100495.84;;;9.87;93.73
32875;BME280;40468;42.128;24.750;2022-12-18T04:12:06;100501.84;;;9.89;94.01
32875;BME280;40468;42.128;24.750;2022-12-18T04:13:38;100504.28;;;9.93;93.87
32875;BME280;40468;42.128;24.750;2022-12-18T04:15:10;100498.97;;;9.98;93.75
32875;BME280;40468;42.128;24.750;2022-12-18T04:16:42;100502.41;;;9.98;93.93
32875;BME280;40468;42.128;24.750;2022-12-18T04:18:16;100493.69;;;9.99;93.66
32875;BME280;40468;42.128;24.750;2022-12-18T04:19:46;100496.25;;;10.01;93.58
32875;BME280;40468;42.128;24.750;2022-12-18T04:21:19;100469.81;;;9.87;93.44
32875;BME280;40468;42.128;24.750;2022-12-18T04:22:51;100495.41;;;10.00;93.42
32875;BME280;40468;42.128;24.750;2022-12-18T04:24:23;100501.38;;;10.04;93.37
32875;BME280;40468;42.128;24.750;2022-12-18T04:25:55;100501.38;;;10.04;93.26
32875;BME280;40468;42.128;24.750;2022-12-18T04:27:26;100506.56;;;10.04;93.26
32875;BME280;40468;42.128;24.750;2022-12-18T04:28:57;100510.88;;;10.05;93.33
32875;BME280;40468;42.128;24.750;2022-12-18T04:30:28;100504.81;;;10.05;92.87
32875;BME280;40468;42.128;24.750;2022-12-18T04:32:00;100503.06;;;10.05;93.06
32875;BME280;40468;42.128;24.750;2022-12-18T04:33:32;100512.63;;;10.05;92.70
32875;BME280;40468;42.128;24.750;2022-12-18T04:35:04;100513.53;;;10.03;92.53
32875;BME280;40468;42.128;24.750;2022-12-18T04:36:40;100517.91;;;10.03;92.47
32875;BME280;40468;42.128;24.750;2022-12-18T04:38:12;100515.31;;;10.01;92.09
32875;BME280;40468;42.128;24.750;2022-12-18T04:39:44;100515.38;;;10.00;91.79
32875;BME280;40468;42.128;24.750;2022-12-18T04:41:16;100511.13;;;9.97;91.61
32875;BME280;40468;42.128;24.750;2022-12-18T04:42:48;100519.81;;;9.96;91.46
32875;BME280;40468;42.128;24.750;2022-12-18T04:44:20;100519.88;;;9.95;91.22
32875;BME280;40468;42.128;24.750;2022-12-18T04:45:51;100526.84;;;9.94;90.56
32875;BME280;40468;42.128;24.750;2022-12-18T04:47:22;100533.78;;;9.94;90.42
32875;BME280;40468;42.128;24.750;2022-12-18T04:48:56;100539.88;;;9.93;90.12
32875;BME280;40468;42.128;24.750;2022-12-18T04:50:28;100531.41;;;9.86;90.30
32875;BME280;40468;42.128;24.750;2022-12-18T04:51:59;100535.69;;;9.89;89.79
32875;BME280;40468;42.128;24.750;2022-12-18T04:53:31;100540.97;;;9.86;89.90
32875;BME280;40468;42.128;24.750;2022-12-18T04:55:04;100546.28;;;9.83;89.49
32875;BME280;40468;42.128;24.750;2022-12-18T04:56:36;100548.88;;;9.83;89.36
32875;BME280;40468;42.128;24.750;2022-12-18T04:58:08;100555.84;;;9.82;89.07
32875;BME280;40468;42.128;24.750;2022-12-18T04:59:39;100558.44;;;9.82;88.92
32875;BME280;40468;42.128;24.750;2022-12-18T05:01:13;100559.31;;;9.81;88.73
32875;BME280;40468;42.128;24.750;2022-12-18T05:02:44;100528.69;;;9.61;88.53
32875;BME280;40468;42.128;24.750;2022-12-18T05:04:17;100555.22;;;9.72;88.32
32875;BME280;40468;42.128;24.750;2022-12-18T05:05:49;100556.22;;;9.68;87.85
32875;BME280;40468;42.128;24.750;2022-12-18T05:07:20;100565.78;;;9.68;87.73
32875;BME280;40468;42.128;24.750;2022-12-18T05:08:52;100563.13;;;9.69;87.48
32875;BME280;40468;42.128;24.750;2022-12-18T05:10:24;100563.13;;;9.69;87.49
32875;BME280;40468;42.128;24.750;2022-12-18T05:11:55;100570.13;;;9.67;86.89
32875;BME280;40468;42.128;24.750;2022-12-18T05:13:26;100572.78;;;9.66;86.91
32875;BME280;40468;42.128;24.750;2022-12-18T05:14:59;100568.47;;;9.65;86.79
32875;BME280;40468;42.128;24.750;2022-12-18T05:16:29;100574.47;;;9.67;86.76
32875;BME280;40468;42.128;24.750;2022-12-18T05:18:03;100580.53;;;9.67;86.46
32875;BME280;40468;42.128;24.750;2022-12-18T05:19:37;100584.03;;;9.66;86.38
32875;BME280;40468;42.128;24.750;2022-12-18T05:21:09;100584.09;;;9.65;86.54
32875;BME280;40468;42.128;24.750;2022-12-18T05:22:41;100582.41;;;9.62;86.72
32875;BME280;40468;42.128;24.750;2022-12-18T05:24:12;100588.47;;;9.63;86.60
32875;BME280;40468;42.128;24.750;2022-12-18T05:25:47;100586.69;;;9.65;86.79
32875;BME280;40468;42.128;24.750;2022-12-18T05:27:18;100591.88;;;9.65;86.50
32875;BME280;40468;42.128;24.750;2022-12-18T05:28:51;100589.41;;;9.60;86.52
32875;BME280;40468;42.128;24.750;2022-12-18T05:30:22;100606.59;;;9.64;86.74
32875;BME280;40468;42.128;24.750;2022-12-18T05:31:53;100610.94;;;9.65;86.67
32875;BME280;40468;42.128;24.750;2022-12-18T05:33:28;100609.28;;;9.63;86.76
32875;BME280;40468;42.128;24.750;2022-12-18T05:35:01;100552.31;;;9.22;86.53
32875;BME280;40468;42.128;24.750;2022-12-18T05:36:33;100623.88;;;9.67;86.51
32875;BME280;40468;42.128;24.750;2022-12-18T05:38:05;100619.56;;;9.67;86.68
32875;BME280;40468;42.128;24.750;2022-12-18T05:39:37;100611.75;;;9.67;86.25
32875;BME280;40468;42.128;24.750;2022-12-18T05:41:09;100621.28;;;9.67;86.43
32875;BME280;40468;42.128;24.750;2022-12-18T05:42:41;100617.81;;;9.66;86.11
32875;BME280;40468;42.128;24.750;2022-12-18T05:44:12;100627.34;;;9.67;86.10
32875;BME280;40468;42.128;24.750;2022-12-18T05:45:44;100628.22;;;9.66;86.01
32875;BME280;40468;42.128;24.750;2022-12-18T05:47:15;100631.75;;;9.65;85.84
32875;BME280;40468;42.128;24.750;2022-12-18T05:48:47;100636.03;;;9.66;85.68
32875;BME280;40468;42.128;24.750;2022-12-18T05:50:21;100644.91;;;9.59;85.73
32875;BME280;40468;42.128;24.750;2022-12-18T05:51:52;100644.91;;;9.59;85.85
32875;BME280;40468;42.128;24.750;2022-12-18T05:53:24;100638.78;;;9.62;85.64
32875;BME280;40468;42.128;24.750;2022-12-18T05:54:56;100630.41;;;9.50;85.20
32875;BME280;40468;42.128;24.750;2022-12-18T05:56:27;100644.81;;;9.62;85.39
32875;BME280;40468;42.128;24.750;2022-12-18T05:57:58;100645.69;;;9.63;84.79
32875;BME280;40468;42.128;24.750;2022-12-18T05:59:30;100654.28;;;9.65;84.81
32875;BME280;40468;42.128;24.750;2022-12-18T06:01:07;100645.69;;;9.63;84.68
32875;BME280;40468;42.128;24.750;2022-12-18T06:02:38;100650.03;;;9.62;84.12
32875;BME280;40468;42.128;24.750;2022-12-18T06:04:10;100536.66;;;8.93;84.16
32875;BME280;40468;42.128;24.750;2022-12-18T06:05:44;100629.44;;;9.54;83.80
32875;BME280;40468;42.128;24.750;2022-12-18T06:07:16;100654.22;;;9.68;84.05
32875;BME280;40468;42.128;24.750;2022-12-18T06:08:49;100660.25;;;9.68;83.79
32875;BME280;40468;42.128;24.750;2022-12-18T06:10:21;100655.00;;;9.70;84.01
32875;BME280;40468;42.128;24.750;2022-12-18T06:11:53;100656.72;;;9.71;83.76
32875;BME280;40468;42.128;24.750;2022-12-18T06:13:25;100632.09;;;9.53;83.23
32875;BME280;40468;42.128;24.750;2022-12-18T06:14:57;100664.53;;;9.71;83.16
32875;BME280;40468;42.128;24.750;2022-12-18T06:16:30;100659.28;;;9.72;83.42
32875;BME280;40468;42.128;24.750;2022-12-18T06:18:01;100661.88;;;9.72;83.24
32875;BME280;40468;42.128;24.750;2022-12-18T06:19:32;100657.56;;;9.71;83.11
32875;BME280;40468;42.128;24.750;2022-12-18T06:21:06;100667.91;;;9.73;82.96
32875;BME280;40468;42.128;24.750;2022-12-18T06:22:38;100656.81;;;9.68;82.88
32875;BME280;40468;42.128;24.750;2022-12-18T06:24:10;100673.03;;;9.76;82.74
32875;BME280;40468;42.128;24.750;2022-12-18T06:25:41;100676.53;;;9.75;82.60
32875;BME280;40468;42.128;24.750;2022-12-18T06:27:13;100678.25;;;9.76;82.30
32875;BME280;40468;42.128;24.750;2022-12-18T06:28:45;100682.50;;;9.78;82.62
32875;BME280;40468;42.128;24.750;2022-12-18T06:30:16;100677.38;;;9.75;82.30
32875;BME280;40468;42.128;24.750;2022-12-18T06:31:48;100688.53;;;9.80;82.62
32875;BME280;40468;42.128;24.750;2022-12-18T06:33:20;100691.97;;;9.81;82.69
32875;BME280;40468;42.128;24.750;2022-12-18T06:34:52;100562.47;;;9.00;82.54
32875;BME280;40468;42.128;24.750;2022-12-18T06:36:26;100692.06;;;9.78;82.95
32875;BME280;40468;42.128;24.750;2022-12-18T06:37:58;100702.53;;;9.76;82.66
32875;BME280;40468;42.128;24.750;2022-12-18T06:39:31;100701.59;;;9.79;82.79
32875;BME280;40468;42.128;24.750;2022-12-18T06:41:06;100634.28;;;9.36;82.89
32875;BME280;40468;42.128;24.750;2022-12-18T06:42:38;100704.13;;;9.82;82.70
32875;BME280;40468;42.128;24.750;2022-12-18T06:44:10;100704.97;;;9.81;82.82
32875;BME280;40468;42.128;24.750;2022-12-18T06:45:42;100717.78;;;9.89;82.86
32875;BME280;40468;42.128;24.750;2022-12-18T06:47:12;100715.09;;;9.92;82.47
32875;BME280;40468;42.128;24.750;2022-12-18T06:48:47;100726.34;;;9.94;82.64
32875;BME280;40468;42.128;24.750;2022-12-18T06:50:19;100719.31;;;9.96;82.30
32875;BME280;40468;42.128;24.750;2022-12-18T06:51:52;100731.44;;;9.97;82.55
32875;BME280;40468;42.128;24.750;2022-12-18T06:53:24;100731.41;;;9.98;82.09
32875;BME280;40468;42.128;24.750;2022-12-18T06:54:55;100716.78;;;9.94;82.44
32875;BME280;40468;42.128;24.750;2022-12-18T06:56:27;100731.41;;;9.98;81.91
32875;BME280;40468;42.128;24.750;2022-12-18T06:57:59;100723.66;;;9.97;81.95
32875;BME280;40468;42.128;24.750;2022-12-18T06:59:31;100733.97;;;10.00;81.85
32875;BME280;40468;42.128;24.750;2022-12-18T07:01:05;100733.06;;;10.01;81.61
32875;BME280;40468;42.128;24.750;2022-12-18T07:02:37;100736.56;;;10.00;81.49
32875;BME280;40468;42.128;24.750;2022-12-18T07:04:09;100741.72;;;10.01;81.58
32875;BME280;40468;42.128;24.750;2022-12-18T07:05:41;100739.09;;;10.03;81.29
32875;BME280;40468;42.128;24.750;2022-12-18T07:07:15;100745.91;;;10.07;81.57
32875;BME280;40468;42.128;24.750;2022-12-18T07:08:47;100741.50;;;10.09;81.52
32875;BME280;40468;42.128;24.750;2022-12-18T07:10:19;100740.59;;;10.10;81.28
32875;BME280;40468;42.128;24.750;2022-12-18T07:11:50;100738.19;;;10.04;81.30
32875;BME280;40468;42.128;24.750;2022-12-18T07:13:22;100738.00;;;10.10;81.06
32875;BME280;40468;42.128;24.750;2022-12-18T07:14:53;100745.63;;;10.16;80.75
32875;BME280;40468;42.128;24.750;2022-12-18T07:16:24;100747.41;;;10.16;80.71
32875;BME280;40468;42.128;24.750;2022-12-18T07:17:58;100752.53;;;10.17;80.25
32875;BME280;40468;42.128;24.750;2022-12-18T07:19:30;100754.28;;;10.17;80.04
32875;BME280;40468;42.128;24.750;2022-12-18T07:21:03;100748.31;;;10.15;79.82
32875;BME280;40468;42.128;24.750;2022-12-18T07:22:37;100750.09;;;10.13;79.84
32875;BME280;40468;42.128;24.750;2022-12-18T07:24:09;100762.16;;;10.15;79.66
32875;BME280;40468;42.128;24.750;2022-12-18T07:25:40;100758.66;;;10.16;79.22
32875;BME280;40468;42.128;24.750;2022-12-18T07:27:12;100748.50;;;10.07;79.40
32875;BME280;40468;42.128;24.750;2022-12-18T07:28:44;100769.22;;;10.12;79.03
32875;BME280;40468;42.128;24.750;2022-12-18T07:30:16;100762.16;;;10.15;79.01
32875;BME280;40468;42.128;24.750;2022-12-18T07:31:48;100754.53;;;10.09;79.06
32875;BME280;40468;42.128;24.750;2022-12-18T07:33:20;100768.25;;;10.14;78.38
32875;BME280;40468;42.128;24.750;2022-12-18T07:34:51;100767.41;;;10.14;78.33
32875;BME280;40468;42.128;24.750;2022-12-18T07:36:23;100764.13;;;10.07;78.28
32875;BME280;40468;42.128;24.750;2022-12-18T07:37:57;100773.53;;;10.11;78.20
32875;BME280;40468;42.128;24.750;2022-12-18T07:39:31;100707.16;;;9.65;77.93
32875;BME280;40468;42.128;24.750;2022-12-18T07:41:04;100774.41;;;10.12;78.04
32875;BME280;40468;42.128;24.750;2022-12-18T07:42:37;100767.56;;;10.08;77.83
32875;BME280;40468;42.128;24.750;2022-12-18T07:44:09;100778.72;;;10.13;77.83
32875;BME280;40468;42.128;24.750;2022-12-18T07:45:42;100776.13;;;10.13;77.67
32875;BME280;40468;42.128;24.750;2022-12-18T07:47:14;100752.34;;;9.94;77.41
32875;BME280;40468;42.128;24.750;2022-12-18T07:48:46;100787.47;;;10.10;77.52
32875;BME280;40468;42.128;24.750;2022-12-18T07:50:18;100777.97;;;10.08;77.23
32875;BME280;40468;42.128;24.750;2022-12-18T07:51:50;100780.56;;;10.09;77.17
32875;BME280;40468;42.128;24.750;2022-12-18T07:53:26;100786.63;;;10.08;76.46
32875;BME280;40468;42.128;24.750;2022-12-18T07:55:08;100756.13;;;9.82;76.44
32875;BME280;40468;42.128;24.750;2022-12-18T07:56:40;100795.47;;;10.02;76.02
32875;BME280;40468;42.128;24.750;2022-12-18T07:58:11;100778.47;;;9.89;75.77
32875;BME280;40468;42.128;24.750;2022-12-18T07:59:43;100803.25;;;10.04;75.88
32875;BME280;40468;42.128;24.750;2022-12-18T08:01:15;100798.03;;;10.04;75.47
32875;BME280;40468;42.128;24.750;2022-12-18T08:02:47;100804.06;;;10.06;75.81
32875;BME280;40468;42.128;24.750;2022-12-18T08:04:19;100803.25;;;10.04;75.30
32875;BME280;40468;42.128;24.750;2022-12-18T08:05:51;100804.06;;;10.06;75.05